Time;durP1;ratioP1;P1;durP2;ratioP2;P2;SDS_P1;SDS_P2;PMS_P1;PMS_P2;Temp;Humidity;BMP_temperature;BMP_pressure;BME280_temperature;BME280_humidity;BME280_pressure;Samples;Min_cycle;Max_cycle;Signal;HPM_P1;HPM_P2
2022/10/21 00:00:15;;;;;;;;;;;;;;;17.95;47.80;101927.81;5076039;28;1148;-56
2022/10/21 00:02:40;;;;;;;;;;;;;;;17.10;48.30;101928.69;5076470;28;1071;-56
2022/10/21 00:05:06;;;;;;;;;;;;;;;16.88;47.55;101923.09;5076165;28;1209;-56
2022/10/21 00:07:32;;;;;;;;;;;;;;;17.64;48.06;101929.25;5075536;28;1194;-57
2022/10/21 00:09:57;;;;;;;;;;;;;;;17.08;48.29;101935.50;5075903;28;1221;-56
2022/10/21 00:12:23;;;;;;;;;;;;;;;16.83;47.89;101933.13;5075773;28;1913;-56
2022/10/21 00:14:48;;;;;;;;;;;;;;;17.18;48.05;101924.72;5075931;28;1122;-57
2022/10/21 00:17:14;;;;;;;;;;;;;;;17.51;48.15;101922.19;5076097;28;1248;-57
2022/10/21 00:19:41;;;;;;;;;;;;;;;17.06;47.64;101922.03;5075443;28;1094;-56
2022/10/21 00:22:07;;;;;;;;;;;;;;;16.74;47.48;101922.53;5077531;28;1091;-57
2022/10/21 00:24:32;;;;;;;;;;;;;;;17.20;47.70;101916.22;5079667;28;988;-56
2022/10/21 00:26:58;;;;;;;;;;;;;;;17.45;48.11;101919.34;5080009;28;1151;-56
2022/10/21 00:29:23;;;;;;;;;;;;;;;16.95;47.88;101911.13;5061523;28;1131;-56
2022/10/21 00:31:51;;;;;;;;;;;;;;;18.47;46.91;101927.31;5079461;28;1957;-56
2022/10/21 00:34:17;;;;;;;;;;;;;;;17.30;48.31;101916.38;5079602;28;1145;-57
2022/10/21 00:36:42;;;;;;;;;;;;;;;17.03;47.79;101921.72;5078832;28;913;-57
2022/10/21 00:39:08;;;;;;;;;;;;;;;16.87;47.14;101923.31;5079348;28;1181;-56
2022/10/21 00:41:33;;;;;;;;;;;;;;;17.57;47.52;101926.66;5079580;28;1202;-56
2022/10/21 00:44:02;;;;;;;;;;;;;;;16.97;47.71;101919.94;5079283;28;1103;-56
2022/10/21 00:46:31;;;;;;;;;;;;;;;17.42;47.99;101924.53;5079540;28;1154;-56
2022/10/21 00:48:57;;;;;;;;;;;;;;;17.33;48.37;101912.28;5075025;28;1001;-56
2022/10/21 00:51:22;;;;;;;;;;;;;;;16.87;48.12;101915.06;5079479;28;1166;-55
2022/10/21 00:53:48;;;;;;;;;;;;;;;16.77;47.09;101922.06;5078042;28;1992;-55
2022/10/21 00:56:16;;;;;;;;;;;;;;;16.66;46.72;101913.88;5078132;28;1205;-54
2022/10/21 00:58:41;;;;;;;;;;;;;;;17.16;47.88;101915.06;5060572;28;1148;-54
2022/10/21 01:01:07;;;;;;;;;;;;;;;16.72;47.75;101910.16;5061151;28;1099;-56
2022/10/21 01:03:32;;;;;;;;;;;;;;;16.59;46.97;101912.13;5079695;28;1123;-54
2022/10/21 01:05:59;;;;;;;;;;;;;;;16.55;46.73;101912.84;5078706;28;1166;-55
2022/10/21 01:08:24;;;;;;;;;;;;;;;17.07;47.67;101911.88;5079448;28;1209;-56
2022/10/21 01:10:50;;;;;;;;;;;;;;;16.65;47.50;101903.94;5078242;28;1217;-57
2022/10/21 01:13:20;;;;;;;;;;;;;;;17.02;47.72;101901.63;5078817;28;1913;-58
2022/10/21 01:15:51;;;;;;;;;;;;;;;17.14;47.89;101901.56;5077956;28;1150;-56
2022/10/21 01:18:18;;;;;;;;;;;;;;;17.51;47.98;101908.44;5065399;28;1123;-56
2022/10/21 01:20:47;;;;;;;;;;;;;;;18.73;46.38;101902.81;5068146;28;1086;-58
2022/10/21 01:23:31;;;;;;;;;;;;;;;14.43;56.59;101912.53;5060544;28;1214;-57
2022/10/21 01:26:06;;;;;;;;;;;;;;;16.54;50.75;101897.47;5078591;28;1154;-58
2022/10/21 01:28:37;;;;;;;;;;;;;;;17.28;49.48;101908.38;5058607;28;1170;-56
2022/10/21 01:31:03;;;;;;;;;;;;;;;16.71;49.11;101912.03;5040890;28;1186;-56
2022/10/21 01:33:28;;;;;;;;;;;;;;;18.39;47.89;101915.94;5060031;28;1906;-57
2022/10/21 01:35:54;;;;;;;;;;;;;;;17.30;49.16;101910.88;5078171;28;867;-56
2022/10/21 01:38:28;;;;;;;;;;;;;;;16.96;48.50;101912.75;5078401;28;1115;-57
2022/10/21 01:41:03;;;;;;;;;;;;;;;16.72;47.53;101915.66;5064830;28;1096;-57
2022/10/21 01:43:49;;;;;;;;;;;;;;;16.90;48.11;101911.84;5078823;28;1174;-57
2022/10/21 01:46:19;;;;;;;;;;;;;;;17.27;48.79;101908.63;5054603;28;1143;-57
2022/10/21 01:48:46;;;;;;;;;;;;;;;16.84;48.26;101907.31;5061042;28;1339;-56
2022/10/21 01:51:12;;;;;;;;;;;;;;;16.56;47.77;101911.75;5040347;28;1190;-56
2022/10/21 01:53:41;;;;;;;;;;;;;;;17.70;48.22;101918.06;5058414;28;1930;-56
2022/10/21 01:56:07;;;;;;;;;;;;;;;16.97;48.35;101923.53;5040511;28;1178;-56
2022/10/21 01:58:33;;;;;;;;;;;;;;;16.72;47.87;101910.97;5040067;28;1214;-56
2022/10/21 02:00:59;;;;;;;;;;;;;;;17.82;47.86;101926.19;5057383;28;1265;-57
2022/10/21 02:03:27;;;;;;;;;;;;;;;17.19;48.70;101920.03;5077799;28;1162;-55
2022/10/21 02:05:53;;;;;;;;;;;;;;;16.89;48.02;101926.69;5060448;28;1150;-56
2022/10/21 02:08:18;;;;;;;;;;;;;;;16.62;47.32;101927.28;5039891;28;1155;-56
2022/10/21 02:10:47;;;;;;;;;;;;;;;16.49;47.06;101933.88;5057635;28;1288;-54
2022/10/21 02:13:14;;;;;;;;;;;;;;;16.68;47.24;101937.25;5064184;28;1972;-54
2022/10/21 02:15:39;;;;;;;;;;;;;;;16.98;47.86;101933.44;5066843;28;1240;-54
2022/10/21 02:18:06;;;;;;;;;;;;;;;17.32;48.09;101930.72;5059922;28;1175;-56
2022/10/21 02:20:33;;;;;;;;;;;;;;;18.77;46.80;101931.50;5077709;28;1174;-56
2022/10/21 02:22:58;;;;;;;;;;;;;;;17.31;48.79;101923.53;5076611;28;1221;-54
2022/10/21 02:25:25;;;;;;;;;;;;;;;17.03;47.97;101928.03;5068227;28;1055;-56
2022/10/21 02:27:50;;;;;;;;;;;;;;;17.67;48.42;101932.34;5059807;28;1143;-57
2022/10/21 02:30:16;;;;;;;;;;;;;;;17.00;48.46;101928.53;5072993;28;1210;-56
2022/10/21 02:33:01;;;;;;;;;;;;;;;16.87;47.62;101937.03;5070116;28;1917;-56
2022/10/21 02:35:30;;;;;;;;;;;;;;;17.31;48.13;101934.53;5074585;28;1150;-56
2022/10/21 02:37:59;;;;;;;;;;;;;;;17.27;48.44;101934.19;5077723;28;1158;-56
2022/10/21 02:40:35;;;;;;;;;;;;;;;16.85;47.98;101937.28;5076076;28;1146;-56
2022/10/21 02:43:11;;;;;;;;;;;;;;;17.74;47.77;101938.50;5075767;28;1306;-56
2022/10/21 02:45:37;;;;;;;;;;;;;;;16.91;48.60;101935.50;5076586;28;1221;-56
2022/10/21 02:48:02;;;;;;;;;;;;;;;18.40;47.15;101939.66;5075443;28;1142;-56
2022/10/21 02:50:28;;;;;;;;;;;;;;;16.28;52.26;101937.31;5077083;28;1111;-56
2022/10/21 02:52:53;;;;;;;;;;;;;;;15.70;52.34;101940.69;5076662;28;1921;-55
2022/10/21 02:55:19;;;;;;;;;;;;;;;17.21;50.09;101950.88;5077030;28;1122;-56
2022/10/21 02:57:44;;;;;;;;;;;;;;;16.98;49.86;101947.16;5076639;28;1233;-56
2022/10/21 03:00:10;;;;;;;;;;;;;;;17.10;49.96;101950.69;5076361;28;1213;-56
2022/10/21 03:02:35;;;;;;;;;;;;;;;18.14;48.48;101955.84;5076715;28;1182;-56
2022/10/21 03:05:01;;;;;;;;;;;;;;;17.18;49.16;101945.84;5076446;28;1166;-56
2022/10/21 03:07:26;;;;;;;;;;;;;;;17.84;49.04;101954.31;5076838;28;1185;-56
2022/10/21 03:09:52;;;;;;;;;;;;;;;17.62;48.88;101946.00;5066639;28;1123;-56
2022/10/21 03:12:17;;;;;;;;;;;;;;;17.11;48.79;101948.78;5055668;28;1906;-60
2022/10/21 03:14:43;;;;;;;;;;;;;;;16.85;47.80;101948.28;5076198;28;1164;-58
2022/10/21 03:17:08;;;;;;;;;;;;;;;16.76;46.86;101945.09;5076812;28;1194;-60
2022/10/21 03:19:33;;;;;;;;;;;;;;;17.98;47.85;101945.72;5077322;28;1206;-60
2022/10/21 03:21:59;;;;;;;;;;;;;;;17.05;48.75;101947.84;5085217;28;1154;-61
2022/10/21 03:24:24;;;;;;;;;;;;;;;16.85;47.74;101941.97;5075659;28;1202;-58
2022/10/21 03:26:50;;;;;;;;;;;;;;;17.09;48.39;101951.75;5069182;28;2377;-61
2022/10/21 03:29:15;;;;;;;;;;;;;;;17.03;48.64;101941.78;5069164;28;2018;-60
2022/10/21 03:31:40;;;;;;;;;;;;;;;16.70;47.81;101935.09;5065426;28;2056;-61
2022/10/21 03:34:06;;;;;;;;;;;;;;;17.95;47.46;101949.81;5073975;28;1927;-62
2022/10/21 03:36:31;;;;;;;;;;;;;;;16.99;48.48;101948.84;5073615;28;2110;-62
2022/10/21 03:38:57;;;;;;;;;;;;;;;17.78;47.87;101949.81;5058789;28;2091;-62
2022/10/21 03:41:22;;;;;;;;;;;;;;;17.74;48.26;101965.16;5059587;28;2187;-61
2022/10/21 03:43:48;;;;;;;;;;;;;;;17.05;48.40;101942.34;5075705;28;1084;-61
2022/10/21 03:46:13;;;;;;;;;;;;;;;16.88;47.53;101947.81;5076159;28;1126;-61
2022/10/21 03:48:38;;;;;;;;;;;;;;;17.72;48.32;101957.16;5075434;28;1106;-61
2022/10/21 03:51:04;;;;;;;;;;;;;;;17.12;48.26;101949.59;5068504;28;1055;-60
2022/10/21 03:53:29;;;;;;;;;;;;;;;16.76;47.88;101942.38;5057401;28;1902;-63
2022/10/21 03:55:55;;;;;;;;;;;;;;;17.41;48.24;101942.94;5075252;28;1254;-63
2022/10/21 03:58:20;;;;;;;;;;;;;;;17.73;48.06;101942.31;5079799;28;1369;-63
2022/10/21 04:00:50;;;;;;;;;;;;;;;18.89;46.52;101941.56;5079027;28;1159;-63
2022/10/21 04:03:15;;;;;;;;;;;;;;;15.38;54.79;101957.47;5067518;28;1107;-62
2022/10/21 04:05:41;;;;;;;;;;;;;;;16.75;50.10;101953.59;5062739;28;1205;-63
2022/10/21 04:08:06;;;;;;;;;;;;;;;17.55;49.60;101959.09;5076715;28;1211;-63
2022/10/21 04:10:31;;;;;;;;;;;;;;;16.96;49.37;101954.84;5059789;28;1265;-62
2022/10/21 04:12:57;;;;;;;;;;;;;;;16.78;48.27;101961.34;5073954;28;1898;-63
2022/10/21 04:15:22;;;;;;;;;;;;;;;17.68;48.59;101963.41;5079123;28;1253;-62
2022/10/21 04:17:48;;;;;;;;;;;;;;;16.96;48.97;101954.84;5079636;28;1281;-63
2022/10/21 04:20:13;;;;;;;;;;;;;;;17.84;48.60;101964.47;5068502;28;1167;-64
2022/10/21 04:22:39;;;;;;;;;;;;;;;17.98;48.47;101960.31;5071361;28;1076;-59
2022/10/21 04:25:04;;;;;;;;;;;;;;;17.27;48.33;101966.34;5076369;28;1150;-59
2022/10/21 04:27:30;;;;;;;;;;;;;;;16.96;48.02;101967.72;5061546;28;1155;-59
2022/10/21 04:29:55;;;;;;;;;;;;;;;16.84;47.11;101959.53;5079431;28;1118;-59
2022/10/21 04:32:20;;;;;;;;;;;;;;;17.78;48.09;101969.06;5079256;28;1893;-59
2022/10/21 04:34:46;;;;;;;;;;;;;;;16.98;48.41;101963.66;5079615;28;1063;-58
2022/10/21 04:37:11;;;;;;;;;;;;;;;16.80;47.87;101966.59;5075234;28;1201;-58
2022/10/21 04:39:37;;;;;;;;;;;;;;;17.59;47.85;101963.84;5079606;28;1096;-59
2022/10/21 04:42:02;;;;;;;;;;;;;;;16.95;48.29;101972.41;5071777;28;1840;-59
2022/10/21 04:44:28;;;;;;;;;;;;;;;18.31;47.56;101983.31;5074291;28;1178;-59
2022/10/21 04:46:53;;;;;;;;;;;;;;;17.76;48.70;101979.50;5078936;28;1190;-59
2022/10/21 04:49:18;;;;;;;;;;;;;;;17.16;48.34;101976.34;5078754;28;1138;-58
2022/10/21 04:51:44;;;;;;;;;;;;;;;17.01;47.68;101985.16;5078470;28;1123;-58
2022/10/21 04:54:09;;;;;;;;;;;;;;;17.63;48.42;101988.94;5079154;28;1918;-58
2022/10/21 04:56:35;;;;;;;;;;;;;;;17.00;48.33;101985.38;5078639;28;1174;-58
2022/10/21 04:59:00;;;;;;;;;;;;;;;16.90;47.45;101991.53;5079103;28;1190;-59
2022/10/21 05:01:26;;;;;;;;;;;;;;;17.62;47.64;101984.53;5078512;28;1204;-61
2022/10/21 05:03:51;;;;;;;;;;;;;;;17.67;48.08;101992.00;5077315;28;1205;-60
2022/10/21 05:06:16;;;;;;;;;;;;;;;17.42;48.76;102001.53;5062933;28;1206;-60
2022/10/21 05:08:42;;;;;;;;;;;;;;;19.21;46.13;102001.41;5078466;28;1158;-58
2022/10/21 05:11:07;;;;;;;;;;;;;;;14.87;56.29;102002.72;5078992;28;1222;-63
2022/10/21 05:13:33;;;;;;;;;;;;;;;17.94;49.72;102001.25;5066868;28;1914;-58
2022/10/21 05:15:59;;;;;;;;;;;;;;;18.15;48.57;102003.50;5078757;28;1146;-57
2022/10/21 05:18:24;;;;;;;;;;;;;;;17.34;49.04;102005.50;5078689;28;1169;-59
2022/10/21 05:20:50;;;;;;;;;;;;;;;18.39;48.54;102004.88;5079126;28;1178;-59
2022/10/21 05:23:16;;;;;;;;;;;;;;;17.60;49.05;102004.03;5078567;28;1099;-58
2022/10/21 05:25:43;;;;;;;;;;;;;;;17.65;49.20;102010.69;5078591;28;1150;-60
2022/10/21 05:28:08;;;;;;;;;;;;;;;17.68;49.79;102016.50;5077843;28;1181;-63
2022/10/21 05:30:33;;;;;;;;;;;;;;;15.35;54.63;102018.25;5077628;28;1091;-58
2022/10/21 05:32:59;;;;;;;;;;;;;;;18.28;49.07;102014.09;5077327;28;2057;-61
2022/10/21 05:35:24;;;;;;;;;;;;;;;17.67;49.48;102017.63;5077773;28;1083;-60
2022/10/21 05:37:50;;;;;;;;;;;;;;;17.96;49.33;102028.53;5071101;28;1135;-58
2022/10/21 05:40:15;;;;;;;;;;;;;;;17.56;49.96;102024.84;5077734;28;1111;-62
2022/10/21 05:42:41;;;;;;;;;;;;;;;17.30;50.35;102031.00;5065296;28;1951;-64
2022/10/21 05:45:06;;;;;;;;;;;;;;;17.07;51.01;102028.13;5064366;28;1126;-64
2022/10/21 05:47:32;;;;;;;;;;;;;;;16.92;51.23;102030.59;5078160;28;1162;-61
2022/10/21 05:49:57;;;;;;;;;;;;;;;16.82;51.39;102033.13;5077465;28;1099;-60
2022/10/21 05:52:23;;;;;;;;;;;;;;;16.69;51.61;102034.22;5066149;28;1988;-63
2022/10/21 05:54:48;;;;;;;;;;;;;;;16.55;51.52;102039.13;5057827;28;1225;-63
2022/10/21 05:57:14;;;;;;;;;;;;;;;16.49;51.80;102045.63;5057765;28;1323;-63
2022/10/21 05:59:39;;;;;;;;;;;;;;;16.39;51.67;102047.06;5067753;28;1207;-60
2022/10/21 06:02:04;;;;;;;;;;;;;;;16.33;51.97;102050.78;5065226;28;1122;-60
2022/10/21 06:04:30;;;;;;;;;;;;;;;16.21;52.03;102041.72;5066073;28;1115;-60
2022/10/21 06:06:56;;;;;;;;;;;;;;;16.67;51.15;102050.94;5057853;28;1222;-60
2022/10/21 06:09:22;;;;;;;;;;;;;;;17.34;49.18;102044.00;5062324;28;1186;-60
2022/10/21 06:11:47;;;;;;;;;;;;;;;16.67;50.96;102052.88;5071012;28;1920;-60
2022/10/21 06:14:13;;;;;;;;;;;;;;;16.44;51.24;102060.06;5077222;28;1906;-60
2022/10/21 06:23:01;;;;;;;;;;;;;;;16.99;49.53;102053.25;5298695;23;8555;-59
2022/10/21 06:25:27;;;;;;;;;;;;;;;17.97;48.47;102045.88;4961246;28;1921;-60
2022/10/21 06:27:52;;;;;;;;;;;;;;;17.85;48.34;102046.78;4958570;28;1975;-59
2022/10/21 06:30:18;;;;;;;;;;;;;;;17.03;49.09;102057.19;4958013;28;2005;-61
2022/10/21 06:32:43;;;;;;;;;;;;;;;18.07;48.16;102046.84;4958969;28;1902;-61
2022/10/21 06:35:09;;;;;;;;;;;;;;;17.33;49.05;102039.56;4958407;28;1926;-60
2022/10/21 06:37:34;;;;;;;;;;;;;;;16.92;48.92;102036.09;4958410;28;2273;-59
2022/10/21 06:40:00;;;;;;;;;;;;;;;17.39;48.90;102040.50;4958705;28;1204;-59
2022/10/21 06:42:25;;;;;;;;;;;;;;;17.46;48.91;102041.19;4958491;28;1106;-62
2022/10/21 06:44:50;;;;;;;;;;;;;;;16.87;49.20;102039.53;4958928;28;1205;-60
2022/10/21 06:47:16;;;;;;;;;;;;;;;18.65;46.95;102049.31;4958671;28;1145;-60
2022/10/21 06:49:41;;;;;;;;;;;;;;;17.43;48.94;102048.03;4958459;28;1264;-61
2022/10/21 06:52:07;;;;;;;;;;;;;;;17.92;48.60;102038.38;4958928;28;1971;-60
2022/10/21 06:54:32;;;;;;;;;;;;;;;18.17;47.93;102050.84;4959201;28;1161;-63
2022/10/21 06:56:57;;;;;;;;;;;;;;;17.27;48.86;102043.34;4958662;28;1121;-62
2022/10/21 06:59:23;;;;;;;;;;;;;;;17.04;47.98;102050.63;4958796;29;1137;-61
2022/10/21 07:01:48;;;;;;;;;;;;;;;18.16;48.04;102051.94;4958840;28;1082;-61
2022/10/21 07:04:14;;;;;;;;;;;;;;;17.30;48.57;102036.50;4958524;28;1134;-61
2022/10/21 07:06:39;;;;;;;;;;;;;;;18.06;48.30;102036.94;4958669;28;1106;-61
2022/10/21 07:09:05;;;;;;;;;;;;;;;17.87;48.01;102036.34;4958680;28;2189;-61
2022/10/21 07:11:31;;;;;;;;;;;;;;;17.33;48.17;102039.56;4958446;28;1082;-62
2022/10/21 07:13:56;;;;;;;;;;;;;;;18.79;46.78;102044.22;4957905;28;1923;-61
2022/10/21 07:16:25;;;;;;;;;;;;;;;17.57;48.75;102043.03;4958509;29;1156;-61
2022/10/21 07:18:50;;;;;;;;;;;;;;;17.24;48.13;102036.41;4957823;28;1145;-61
2022/10/21 07:21:17;;;;;;;;;;;;;;;18.08;48.11;102031.19;4957989;28;1126;-60
2022/10/21 07:23:43;;;;;;;;;;;;;;;17.37;48.38;102037.19;4958203;28;1184;-61
2022/10/21 07:26:08;;;;;;;;;;;;;;;18.22;48.02;102037.16;4957981;28;1165;-60
2022/10/21 07:28:34;;;;;;;;;;;;;;;17.78;48.36;102037.84;4957950;28;1177;-61
2022/10/21 07:30:59;;;;;;;;;;;;;;;17.32;48.27;102032.44;4957764;28;1106;-61
2022/10/21 07:33:25;;;;;;;;;;;;;;;18.59;47.03;102031.88;4957931;28;1906;-60
2022/10/21 07:35:50;;;;;;;;;;;;;;;14.74;56.24;102041.25;4957882;28;1113;-60
2022/10/21 07:38:16;;;;;;;;;;;;;;;18.39;48.33;102040.69;4957813;28;1857;-60
2022/10/21 07:40:41;;;;;;;;;;;;;;;15.87;53.93;102038.75;4958524;28;1129;-60
2022/10/21 07:43:06;;;;;;;;;;;;;;;16.89;52.33;102042.06;4958265;28;1149;-58
2022/10/21 07:45:32;;;;;;;;;;;;;;;18.85;47.02;102039.63;4958169;28;1090;-62
2022/10/21 07:47:57;;;;;;;;;;;;;;;14.27;57.92;102039.88;4958023;28;1126;-60
2022/10/21 07:53:58;;;;;;;;;;;;;;;17.42;50.33;102023.53;4956940;28;2054;-62
2022/10/21 07:56:25;;;;;;;;;;;;;;;16.11;53.30;102034.09;4988601;28;2737;-62
2022/10/21 07:58:50;;;;;;;;;;;;;;;18.18;49.13;102036.00;4957382;28;1812;-61
2022/10/21 08:01:16;;;;;;;;;;;;;;;15.95;53.96;102032.06;4955536;28;1886;-60
2022/10/21 08:03:42;;;;;;;;;;;;;;;16.48;53.66;102036.56;4954575;28;1931;-60
2022/10/21 08:06:07;;;;;;;;;;;;;;;18.95;47.10;102026.78;4957665;28;1836;-61
2022/10/21 08:08:33;;;;;;;;;;;;;;;14.40;58.07;102025.22;4957454;28;2058;-60
2022/10/21 08:10:58;;;;;;;;;;;;;;;17.48;51.23;102024.44;4957455;28;1137;-61
2022/10/21 08:13:23;;;;;;;;;;;;;;;17.97;49.21;102027.44;4957423;28;1910;-62
2022/10/21 08:15:50;;;;;;;;;;;;;;;17.22;49.75;102026.72;4957604;28;1162;-61
2022/10/21 08:18:15;;;;;;;;;;;;;;;17.02;48.79;102029.94;4958003;28;1143;-62
2022/10/21 08:20:42;;;;;;;;;;;;;;;17.00;48.53;102027.44;4957734;28;1176;-61
2022/10/21 08:23:07;;;;;;;;;;;;;;;17.74;49.03;102022.94;4957082;28;1188;-62
2022/10/21 08:25:33;;;;;;;;;;;;;;;17.74;49.30;102023.78;4957072;28;1181;-63
2022/10/21 08:27:58;;;;;;;;;;;;;;;18.53;47.87;102019.13;4957421;28;1311;-62
2022/10/21 08:30:24;;;;;;;;;;;;;;;15.87;54.42;102019.56;4957205;28;1393;-63
2022/10/21 08:32:50;;;;;;;;;;;;;;;17.10;50.75;102011.16;4956916;28;1973;-63
2022/10/21 08:35:15;;;;;;;;;;;;;;;18.30;48.33;102017.47;4957215;28;1256;-63
2022/10/21 08:37:41;;;;;;;;;;;;;;;17.40;49.45;102010.03;4956643;28;1916;-62
2022/10/21 08:40:07;;;;;;;;;;;;;;;17.16;48.82;102011.25;4956867;28;1240;-62
2022/10/21 08:42:32;;;;;;;;;;;;;;;18.15;48.38;102015.31;4957640;28;1224;-59
2022/10/21 08:45:02;;;;;;;;;;;;;;;17.36;48.89;102022.59;4960926;28;1138;-60
2022/10/21 08:47:48;;;;;;;;;;;;;;;17.57;49.19;102020.19;4959952;29;1117;-59
2022/10/21 08:50:14;;;;;;;;;;;;;;;17.55;48.78;102016.88;4960481;29;1308;-59
2022/10/21 08:52:47;;;;;;;;;;;;;;;17.27;48.25;102011.16;4958992;29;1957;-60
2022/10/21 08:55:19;;;;;;;;;;;;;;;18.18;48.04;102013.97;4959337;28;1141;-58
2022/10/21 08:57:45;;;;;;;;;;;;;;;17.35;48.88;102018.19;4961355;29;1066;-61
2022/10/21 09:00:15;;;;;;;;;;;;;;;17.18;48.00;102014.56;4959507;29;1196;-58
2022/10/21 09:02:59;;;;;;;;;;;;;;;17.05;47.28;102008.28;4960569;28;1146;-60
2022/10/21 09:05:25;;;;;;;;;;;;;;;17.60;48.12;102015.03;4960595;28;1102;-60
2022/10/21 09:07:55;;;;;;;;;;;;;;;17.23;48.16;102011.91;4960564;28;1844;-58
2022/10/21 09:10:40;;;;;;;;;;;;;;;17.04;47.56;102003.91;4960718;28;1110;-58
2022/10/21 09:13:12;;;;;;;;;;;;;;;18.00;47.37;102002.16;4960623;28;1964;-59
2022/10/21 09:15:38;;;;;;;;;;;;;;;17.16;48.44;101998.31;4959961;28;1130;-58
2022/10/21 09:18:09;;;;;;;;;;;;;;;16.96;47.72;102003.44;4960589;28;1165;-59
2022/10/21 09:20:34;;;;;;;;;;;;;;;16.81;47.19;102009.47;4960427;28;1168;-58
2022/10/21 09:23:06;;;;;;;;;;;;;;;16.77;46.74;102009.09;4960193;28;1214;-59
2022/10/21 09:25:32;;;;;;;;;;;;;;;16.62;46.72;102006.06;4960917;28;1144;-60
2022/10/21 09:27:58;;;;;;;;;;;;;;;17.60;47.30;101997.69;4960297;28;1106;-60
2022/10/21 09:30:23;;;;;;;;;;;;;;;16.89;48.32;102009.09;4960200;28;1121;-60
2022/10/21 09:32:49;;;;;;;;;;;;;;;16.80;47.23;102005.03;4960205;28;1894;-60
2022/10/21 09:35:21;;;;;;;;;;;;;;;17.24;47.41;101997.09;4960386;28;1106;-60
2022/10/21 09:37:46;;;;;;;;;;;;;;;17.21;47.60;101992.94;4959793;28;1927;-60
2022/10/21 09:40:12;;;;;;;;;;;;;;;16.72;48.06;102001.63;4959741;28;913;-60
2022/10/21 09:42:37;;;;;;;;;;;;;;;16.74;46.99;101991.19;4960256;28;1074;-60
2022/10/21 09:45:03;;;;;;;;;;;;;;;17.40;47.76;101985.28;4960361;28;1209;-60
2022/10/21 09:47:28;;;;;;;;;;;;;;;16.85;47.69;101991.41;4958610;29;1105;-60
2022/10/21 09:49:56;;;;;;;;;;;;;;;17.17;48.02;101978.00;4958808;29;1150;-60
2022/10/21 09:52:22;;;;;;;;;;;;;;;17.18;47.71;101965.09;4959306;28;1899;-60
2022/10/21 09:54:47;;;;;;;;;;;;;;;16.81;47.89;101962.75;4957808;28;1054;-60
2022/10/21 09:57:13;;;;;;;;;;;;;;;17.74;46.85;101968.75;4957818;29;1272;-60
2022/10/21 09:59:51;;;;;;;;;;;;;;;16.97;48.05;101967.50;4959000;28;1213;-59
2022/10/21 10:02:17;;;;;;;;;;;;;;;16.75;47.51;101962.66;4959273;28;1178;-60
2022/10/21 10:04:42;;;;;;;;;;;;;;;17.63;47.26;101958.69;4958926;28;1295;-60
2022/10/21 10:07:26;;;;;;;;;;;;;;;17.20;47.99;101968.44;4959738;28;1086;-60
2022/10/21 10:09:52;;;;;;;;;;;;;;;16.82;47.73;101964.44;4959234;28;2229;-61
2022/10/21 10:12:21;;;;;;;;;;;;;;;16.71;47.13;101960.66;4959507;28;1910;-60
2022/10/21 10:14:46;;;;;;;;;;;;;;;16.68;47.01;101950.16;4959598;28;1145;-59
2022/10/21 10:17:18;;;;;;;;;;;;;;;17.14;47.46;101950.19;4959205;28;898;-59
2022/10/21 10:19:43;;;;;;;;;;;;;;;16.90;48.01;101958.56;4959500;29;1173;-58
2022/10/21 10:22:11;;;;;;;;;;;;;;;18.66;45.51;101960.03;4957816;28;1381;-59
2022/10/21 10:24:39;;;;;;;;;;;;;;;17.41;47.95;101955.88;4959593;28;1184;-59
2022/10/21 10:27:05;;;;;;;;;;;;;;;17.02;47.67;101962.06;4947440;28;1105;-60
2022/10/21 10:29:32;;;;;;;;;;;;;;;17.13;47.69;101960.34;4972123;28;1115;-59
2022/10/21 10:31:59;;;;;;;;;;;;;;;17.36;47.88;101951.13;4940025;29;1228;-57
2022/10/21 10:34:37;;;;;;;;;;;;;;;16.96;47.64;101954.84;4957627;29;1973;-58
2022/10/21 10:37:06;;;;;;;;;;;;;;;18.28;46.46;101953.53;4958089;29;1117;-59
2022/10/21 10:39:32;;;;;;;;;;;;;;;17.30;47.94;101948.53;4958618;28;2090;-59
2022/10/21 10:41:57;;;;;;;;;;;;;;;16.92;47.94;101942.66;4959058;28;1105;-58
2022/10/21 10:44:27;;;;;;;;;;;;;;;16.87;47.15;101928.81;4957993;29;1176;-58
2022/10/21 10:46:53;;;;;;;;;;;;;;;16.72;46.68;101927.44;4959043;28;1220;-59
2022/10/21 10:49:22;;;;;;;;;;;;;;;17.42;47.44;101930.03;4957464;29;1188;-60
2022/10/21 10:52:00;;;;;;;;;;;;;;;16.86;47.84;101919.75;4958866;28;1165;-58
2022/10/21 10:54:26;;;;;;;;;;;;;;;16.81;47.66;101932.56;4957024;28;1910;-60
2022/10/21 10:56:54;;;;;;;;;;;;;;;17.79;46.97;101940.47;4958720;28;1137;-60
2022/10/21 10:59:22;;;;;;;;;;;;;;;17.13;47.76;101923.78;4957402;29;1196;-60
2022/10/21 11:02:06;;;;;;;;;;;;;;;16.87;47.40;101929.66;4958529;28;1189;-60
2022/10/21 11:04:33;;;;;;;;;;;;;;;18.03;46.87;101927.34;4958483;28;873;-60
2022/10/21 11:07:17;;;;;;;;;;;;;;;17.06;48.01;101921.22;4957357;28;1134;-58
2022/10/21 11:09:43;;;;;;;;;;;;;;;18.00;47.10;101930.59;4958074;28;2169;-60
2022/10/21 11:12:12;;;;;;;;;;;;;;;17.78;47.35;101923.16;4957021;29;1209;-60
2022/10/21 11:14:37;;;;;;;;;;;;;;;17.12;48.01;101920.19;4958690;28;1176;-59
2022/10/21 11:17:05;;;;;;;;;;;;;;;17.05;47.11;101920.34;4958345;28;1145;-61
2022/10/21 11:19:39;;;;;;;;;;;;;;;16.85;46.87;101925.47;4957321;29;1110;-60
2022/10/21 11:22:12;;;;;;;;;;;;;;;17.76;46.99;101919.81;4958354;28;1260;-59
2022/10/21 11:24:49;;;;;;;;;;;;;;;17.01;47.95;101923.84;4958264;28;1217;-58
2022/10/21 11:27:30;;;;;;;;;;;;;;;16.85;47.29;101917.25;4958058;29;1094;-58
2022/10/21 11:30:02;;;;;;;;;;;;;;;17.84;46.83;101915.78;4957781;29;961;-59
2022/10/21 11:32:29;;;;;;;;;;;;;;;17.09;48.03;101905.03;4956405;29;1977;-58
2022/10/21 11:35:04;;;;;;;;;;;;;;;17.00;47.18;101906.56;4956443;29;1264;-54
2022/10/21 11:37:32;;;;;;;;;;;;;;;17.88;47.14;101900.44;4957456;28;2284;-54
2022/10/21 11:40:03;;;;;;;;;;;;;;;17.15;47.82;101885.88;4957554;28;1244;-52
2022/10/21 11:42:30;;;;;;;;;;;;;;;17.00;47.26;101900.19;4956454;29;1225;-53
2022/10/21 11:45:02;;;;;;;;;;;;;;;16.82;47.06;101899.34;4956535;28;1399;-56
2022/10/21 11:47:30;;;;;;;;;;;;;;;17.11;47.05;101902.06;4956158;29;1106;-58
2022/10/21 11:50:02;;;;;;;;;;;;;;;17.14;47.74;101890.56;4958908;28;1129;-58
2022/10/21 11:52:36;;;;;;;;;;;;;;;16.87;47.36;101891.19;4956787;28;1961;-57
2022/10/21 11:55:05;;;;;;;;;;;;;;;17.58;47.13;101876.09;4957444;28;1181;-56
2022/10/21 11:57:34;;;;;;;;;;;;;;;17.16;47.81;101882.88;4957265;28;1206;-58
2022/10/21 12:00:08;;;;;;;;;;;;;;;16.91;47.56;101872.31;4957171;28;1233;-58
2022/10/21 12:02:34;;;;;;;;;;;;;;;16.86;47.37;101874.97;4957104;28;1296;-58
2022/10/21 12:04:59;;;;;;;;;;;;;;;17.54;47.39;101872.19;4957837;28;1264;-58
2022/10/21 12:07:32;;;;;;;;;;;;;;;17.03;47.85;101861.25;4958075;28;1094;-56
2022/10/21 12:10:03;;;;;;;;;;;;;;;16.88;46.88;101864.53;4980989;28;1105;-51
2022/10/21 12:12:29;;;;;;;;;;;;;;;17.71;47.31;101877.63;4955289;28;1956;-57
2022/10/21 12:14:56;;;;;;;;;;;;;;;17.04;47.94;101869.25;4956844;29;1097;-49
2022/10/21 12:17:22;;;;;;;;;;;;;;;16.89;47.89;101864.31;4957312;28;1193;-58
2022/10/21 12:19:57;;;;;;;;;;;;;;;17.76;47.02;101862.03;4959871;29;1252;-53
2022/10/21 12:22:26;;;;;;;;;;;;;;;17.02;47.97;101865.06;4961257;28;1227;-51
2022/10/21 12:24:55;;;;;;;;;;;;;;;16.80;47.19;101860.28;4961189;28;1212;-55
2022/10/21 12:27:34;;;;;;;;;;;;;;;16.77;47.76;101850.66;4960759;28;1378;-54
2022/10/21 12:30:18;;;;;;;;;;;;;;;17.20;47.79;101855.75;4960736;28;1209;-55
2022/10/21 12:33:02;;;;;;;;;;;;;;;16.78;47.89;101848.72;4958299;29;1972;-52
2022/10/21 12:35:54;;;;;;;;;;;;;;;16.73;47.08;101854.97;4961279;28;1150;-55
2022/10/21 12:38:20;;;;;;;;;;;;;;;17.25;47.80;101853.91;4960200;29;1810;-51
2022/10/21 12:40:46;;;;;;;;;;;;;;;16.90;47.67;101856.91;4960494;28;1220;-52
2022/10/21 12:43:22;;;;;;;;;;;;;;;16.73;47.27;101860.47;4959513;29;1158;-52
2022/10/21 12:46:04;;;;;;;;;;;;;;;17.55;47.35;101855.41;4959685;29;1252;-52
2022/10/21 12:48:30;;;;;;;;;;;;;;;16.91;47.69;101848.44;4960764;28;1106;-53
2022/10/21 12:51:00;;;;;;;;;;;;;;;16.76;47.41;101848.97;4960672;28;1264;-55
2022/10/21 12:53:31;;;;;;;;;;;;;;;17.01;47.32;101853.25;4959044;28;1999;-52
2022/10/21 12:55:57;;;;;;;;;;;;;;;17.24;47.53;101854.16;4959822;29;1209;-52
2022/10/21 12:58:30;;;;;;;;;;;;;;;16.87;47.57;101858.22;4961048;28;1185;-50